Time;durP1;ratioP1;P1;durP2;ratioP2;P2;SDS_P1;SDS_P2;PMS_P1;PMS_P2;Temp;Humidity;BMP_temperature;BMP_pressure;BME280_temperature;BME280_humidity;BME280_pressure;Samples;Min_cycle;Max_cycle;Signal;HPM_P1;HPM_P2
2021/09/24 00:01:01;;;;;;;16.30;11.07;;;;;;;14.93;50.27;100731.22;4949439;28;20115;-74
2021/09/24 00:03:27;;;;;;;16.70;10.95;;;;;;;14.84;50.81;100749.81;4951466;28;20857;-76
2021/09/24 00:05:53;;;;;;;12.50;10.80;;;;;;;14.72;49.89;100735.84;4950983;29;20039;-76
2021/09/24 00:08:19;;;;;;;16.85;10.43;;;;;;;14.65;50.20;100735.97;4950754;28;20039;-74
2021/09/24 00:10:45;;;;;;;16.92;9.95;;;;;;;14.99;49.87;100763.72;4949320;28;20043;-75
2021/09/24 00:13:10;;;;;;;15.88;9.10;;;;;;;14.75;50.84;100751.69;4945500;29;20051;-74
2021/09/24 00:15:36;;;;;;;11.45;8.98;;;;;;;14.86;50.55;100767.41;4948013;29;20042;-76
2021/09/24 00:18:02;;;;;;;13.43;7.60;;;;;;;14.77;50.64;100764.88;4950495;29;20035;-76
2021/09/24 00:20:27;;;;;;;11.68;8.48;;;;;;;14.76;50.95;100768.41;4951026;28;20481;-74
2021/09/24 00:22:53;;;;;;;13.52;9.43;;;;;;;14.82;50.88;100739.28;4947070;28;20077;-75
2021/09/24 00:25:19;;;;;;;18.02;9.73;;;;;;;15.19;50.41;100766.13;4945497;28;20123;-75
2021/09/24 00:27:44;;;;;;;14.85;9.85;;;;;;;15.06;50.12;100746.03;4947561;29;20067;-73
2021/09/24 00:30:11;;;;;;;16.92;10.60;;;;;;;15.23;49.95;100766.94;4947564;28;20603;-74
2021/09/24 00:32:36;;;;;;;15.35;10.30;;;;;;;15.13;50.63;100741.53;4950160;28;20048;-75
2021/09/24 00:35:03;;;;;;;18.23;11.25;;;;;;;14.93;50.96;100777.00;4950661;29;20047;-77
2021/09/24 00:37:28;;;;;;;20.40;11.13;;;;;;;15.16;50.07;100781.13;4950790;28;20497;-76
2021/09/24 00:39:54;;;;;;;14.48;10.70;;;;;;;14.98;50.30;100775.19;4943298;28;20036;-75
2021/09/24 00:42:20;;;;;;;22.42;10.60;;;;;;;14.74;50.34;100744.66;4949872;29;20585;-77
2021/09/24 00:44:48;;;;;;;14.73;10.57;;;;;;;14.70;50.48;100737.66;4948835;28;20055;-75
2021/09/24 00:47:14;;;;;;;15.77;10.50;;;;;;;14.67;51.18;100750.03;4949869;28;20043;-77
2021/09/24 00:49:40;;;;;;;20.25;10.68;;;;;;;14.57;50.87;100763.34;4949273;28;20035;-76
2021/09/24 00:52:06;;;;;;;19.80;9.88;;;;;;;14.55;51.29;100749.25;4949555;28;20050;-76
2021/09/24 00:54:32;;;;;;;16.08;9.13;;;;;;;14.67;51.01;100758.81;4955214;28;20043;-76
2021/09/24 00:57:00;;;;;;;12.07;9.10;;;;;;;14.84;49.83;100749.81;4944726;29;20412;-75
2021/09/24 00:59:26;;;;;;;12.73;9.50;;;;;;;14.66;51.55;100756.22;4950462;29;20035;-76
2021/09/24 01:01:51;;;;;;;15.73;9.98;;;;;;;14.52;51.85;100717.59;4949506;28;20404;-74
2021/09/24 01:04:17;;;;;;;16.30;10.38;;;;;;;14.77;51.54;100743.72;4948339;29;20050;-77
2021/09/24 01:06:43;;;;;;;18.45;9.88;;;;;;;14.65;51.92;100746.53;4950177;28;20031;-77
2021/09/24 01:09:08;;;;;;;25.58;10.00;;;;;;;14.24;52.38;100742.53;4949678;29;20548;-75
2021/09/24 01:11:36;;;;;;;16.95;10.35;;;;;;;14.19;52.92;100725.84;4941246;28;20052;-78
2021/09/24 01:14:02;;;;;;;16.25;10.57;;;;;;;14.36;53.22;100745.91;4950663;28;20063;-77
2021/09/24 01:16:28;;;;;;;12.07;9.05;;;;;;;14.04;53.76;100701.34;4950358;29;20119;-75
2021/09/24 01:18:53;;;;;;;15.27;10.80;;;;;;;13.70;52.68;100701.66;4949309;28;20188;-75
2021/09/24 01:21:19;;;;;;;14.00;11.13;;;;;;;14.03;52.28;100739.19;4946338;28;20031;-74
2021/09/24 01:23:45;;;;;;;14.43;9.27;;;;;;;13.97;52.75;100720.78;4937139;29;20077;-74
2021/09/24 01:26:10;;;;;;;13.75;10.60;;;;;;;13.89;53.52;100686.56;4943677;29;20042;-73
2021/09/24 01:28:36;;;;;;;13.27;8.57;;;;;;;13.95;53.85;100719.91;4950587;28;20062;-74
2021/09/24 01:31:01;;;;;;;15.52;9.82;;;;;;;13.60;52.90;100694.72;4949961;29;20036;-73
2021/09/24 01:33:27;;;;;;;21.30;10.85;;;;;;;13.63;52.82;100701.75;4950004;28;20516;-73
2021/09/24 01:35:52;;;;;;;15.80;9.77;;;;;;;13.80;53.84;100693.69;4945487;29;20047;-73
2021/09/24 01:38:18;;;;;;;18.35;10.45;;;;;;;13.67;53.35;100727.19;4949166;28;20507;-76
2021/09/24 01:40:43;;;;;;;12.50;9.38;;;;;;;13.93;53.48;100724.34;4948725;29;20082;-75
2021/09/24 01:43:09;;;;;;;14.13;9.80;;;;;;;13.78;53.75;100701.59;4949282;28;20169;-76
2021/09/24 01:45:34;;;;;;;20.63;10.27;;;;;;;14.02;53.84;100712.81;4948950;29;20027;-75
2021/09/24 01:48:00;;;;;;;15.20;9.65;;;;;;;14.15;53.02;100717.97;4949918;28;20500;-76
2021/09/24 01:50:25;;;;;;;16.40;9.23;;;;;;;13.93;52.90;100685.66;4939922;28;20043;-76
2021/09/24 01:52:51;;;;;;;13.40;9.40;;;;;;;13.86;53.10;100706.78;4943952;29;20032;-75
2021/09/24 01:55:16;;;;;;;13.48;8.68;;;;;;;13.58;53.70;100682.41;4944537;29;20032;-75
2021/09/24 01:57:42;;;;;;;13.88;9.93;;;;;;;13.86;53.46;100714.72;4949076;29;20035;-75
2021/09/24 02:00:10;;;;;;;12.88;9.07;;;;;;;14.23;53.81;100702.03;4949465;28;20126;-74
2021/09/24 02:02:35;;;;;;;11.57;8.50;;;;;;;13.78;54.01;100664.66;4949067;29;20039;-74
2021/09/24 02:05:02;;;;;;;13.70;10.20;;;;;;;14.06;54.38;100685.53;4937552;29;20034;-76
2021/09/24 02:07:27;;;;;;;13.70;8.98;;;;;;;13.75;54.83;100663.84;4939290;28;20060;-76
2021/09/24 02:09:53;;;;;;;27.08;10.82;;;;;;;13.94;54.79;100666.28;4951570;28;20046;-75
2021/09/24 02:12:18;;;;;;;18.67;9.10;;;;;;;14.15;54.70;100677.50;4949772;28;20401;-78
2021/09/24 02:14:44;;;;;;;13.38;9.98;;;;;;;14.07;54.21;100645.94;4951359;29;20035;-76
2021/09/24 02:17:09;;;;;;;14.32;9.57;;;;;;;13.99;54.44;100649.53;4951466;29;20077;-76
2021/09/24 02:19:35;;;;;;;11.73;8.13;;;;;;;13.91;54.99;100650.50;4939124;28;20042;-75
2021/09/24 02:22:01;;;;;;;22.67;10.85;;;;;;;13.90;55.28;100661.91;4949305;29;20035;-74
2021/09/24 02:24:27;;;;;;;14.45;9.93;;;;;;;13.93;55.68;100651.34;4949025;28;20073;-74
2021/09/24 02:26:52;;;;;;;14.10;9.05;;;;;;;13.84;55.93;100648.81;4951707;29;20039;-73
2021/09/24 02:29:18;;;;;;;15.73;9.38;;;;;;;13.92;56.14;100654.00;4952425;28;20462;-75
2021/09/24 02:31:43;;;;;;;17.23;9.80;;;;;;;14.02;55.60;100647.72;4949064;29;20023;-75
2021/09/24 02:34:10;;;;;;;13.07;8.48;;;;;;;14.13;55.52;100645.84;4947679;28;20469;-74
2021/09/24 02:36:36;;;;;;;13.68;9.52;;;;;;;14.21;55.14;100647.53;4941705;28;20102;-76
2021/09/24 02:39:02;;;;;;;11.85;8.82;;;;;;;14.14;55.11;100652.00;4953280;29;20444;-75
2021/09/24 02:41:28;;;;;;;16.48;8.50;;;;;;;14.08;54.50;100642.41;4953089;29;20090;-75
2021/09/24 02:43:53;;;;;;;14.80;8.88;;;;;;;14.08;54.65;100628.34;4952110;28;20043;-76
2021/09/24 02:46:19;;;;;;;14.23;8.80;;;;;;;14.00;54.86;100632.81;4944022;28;20031;-75
2021/09/24 02:48:44;;;;;;;13.98;10.63;;;;;;;14.05;53.28;100599.34;4951612;28;20028;-76
2021/09/24 02:51:10;;;;;;;13.80;9.52;;;;;;;14.33;53.03;100623.66;4939902;29;20137;-76
2021/09/24 02:53:35;;;;;;;20.77;9.25;;;;;;;14.23;53.35;100636.06;4951952;29;20047;-75
2021/09/24 02:56:01;;;;;;;12.02;10.07;;;;;;;14.22;52.39;100600.00;4951559;29;20115;-75
2021/09/24 02:58:26;;;;;;;15.25;10.70;;;;;;;14.58;52.53;100605.75;4952532;29;20043;-75
2021/09/24 03:00:52;;;;;;;19.10;11.23;;;;;;;14.70;52.91;100608.25;4952077;28;20059;-75
2021/09/24 03:03:17;;;;;;;12.38;9.32;;;;;;;14.75;52.54;100609.03;4947229;28;20031;-76
2021/09/24 03:05:42;;;;;;;10.15;8.55;;;;;;;14.63;52.64;100579.28;4945294;29;20068;-76
2021/09/24 03:08:09;;;;;;;15.38;9.48;;;;;;;14.78;52.49;100581.72;4952695;28;20039;-75
2021/09/24 03:10:34;;;;;;;20.35;10.25;;;;;;;14.69;52.66;100566.00;4952083;29;20040;-76
2021/09/24 03:13:00;;;;;;;14.40;11.00;;;;;;;14.79;52.11;100586.09;4951628;28;20066;-76
2021/09/24 03:15:25;;;;;;;34.30;10.73;;;;;;;14.67;52.29;100581.84;4938159;28;20035;-75
2021/09/24 03:17:51;;;;;;;12.05;9.65;;;;;;;14.90;51.24;100591.22;4939658;28;20083;-76
2021/09/24 03:20:16;;;;;;;13.85;9.77;;;;;;;14.54;51.89;100564.44;4945920;29;20058;-76
2021/09/24 03:22:42;;;;;;;16.63;10.10;;;;;;;14.35;52.17;100576.97;4952474;28;20075;-75
2021/09/24 03:25:08;;;;;;;19.70;10.95;;;;;;;14.44;52.39;100587.41;4948641;28;20035;-75
2021/09/24 03:27:35;;;;;;;13.23;10.95;;;;;;;14.66;51.31;100587.19;4951287;28;20035;-75
2021/09/24 03:30:09;;;;;;;15.07;11.13;;;;;;;14.56;50.25;100526.56;4951299;29;20027;-76
2021/09/24 03:32:35;;;;;;;17.65;8.98;;;;;;;14.91;49.96;100575.34;4943498;29;20054;-75
2021/09/24 03:35:02;;;;;;;14.98;9.38;;;;;;;14.96;50.00;100572.63;4950022;28;20031;-77
2021/09/24 03:37:27;;;;;;;13.55;9.63;;;;;;;15.02;48.89;100529.38;4950818;29;20039;-76
2021/09/24 03:39:53;;;;;;;10.93;8.93;;;;;;;14.94;48.79;100558.59;4951409;28;20094;-76
2021/09/24 03:42:18;;;;;;;15.20;8.75;;;;;;;14.77;49.22;100549.16;4951454;29;20607;-75
2021/09/24 03:44:44;;;;;;;20.85;10.25;;;;;;;14.93;48.52;100549.75;4949834;28;20118;-75
2021/09/24 03:47:10;;;;;;;12.60;8.50;;;;;;;14.82;48.15;100519.13;4935795;28;20047;-74
2021/09/24 03:49:36;;;;;;;12.93;9.05;;;;;;;15.09;47.55;100529.25;4953203;28;20043;-74
2021/09/24 03:52:03;;;;;;;14.65;7.57;;;;;;;15.26;46.94;100534.25;4950331;29;20503;-75
2021/09/24 03:54:29;;;;;;;14.80;9.10;;;;;;;14.97;47.24;100542.66;4951130;28;20035;-74
2021/09/24 03:56:55;;;;;;;11.05;7.78;;;;;;;14.88;47.80;100562.16;4949671;29;20090;-75
2021/09/24 03:59:20;;;;;;;12.68;7.57;;;;;;;15.06;47.05;100544.28;4947775;29;20508;-74
2021/09/24 04:01:46;;;;;;;11.77;7.35;;;;;;;14.97;46.57;100516.25;4937908;28;20039;-74
2021/09/24 04:04:11;;;;;;;9.93;6.82;;;;;;;15.04;46.12;100524.94;4950431;29;20028;-75
2021/09/24 04:06:37;;;;;;;14.05;6.95;;;;;;;14.94;46.50;100551.53;4952163;28;20047;-74
2021/09/24 04:09:03;;;;;;;12.77;6.72;;;;;;;14.84;46.73;100552.53;4950441;29;20038;-74
2021/09/24 04:11:28;;;;;;;11.52;6.32;;;;;;;14.97;46.08;100503.91;4948986;28;20031;-76
2021/09/24 04:13:54;;;;;;;10.73;6.15;;;;;;;15.13;45.65;100532.72;4942043;29;20509;-75
2021/09/24 04:16:21;;;;;;;15.05;5.97;;;;;;;15.25;45.24;100561.59;4939632;29;20030;-75
2021/09/24 04:18:47;;;;;;;8.48;5.88;;;;;;;14.99;45.80;100557.59;4944534;29;20051;-76
2021/09/24 04:21:13;;;;;;;10.35;6.50;;;;;;;15.10;45.77;100545.97;4951934;29;20031;-77
2021/09/24 04:23:38;;;;;;;9.65;6.63;;;;;;;14.67;46.71;100573.94;4946823;28;20424;-73
2021/09/24 04:26:04;;;;;;;10.45;6.28;;;;;;;14.38;46.68;100541.75;4980951;28;20079;-77
2021/09/24 04:28:30;;;;;;;8.45;5.35;;;;;;;14.62;46.09;100533.50;4947591;28;20035;-78
2021/09/24 04:30:56;;;;;;;12.70;6.50;;;;;;;14.80;45.89;100526.19;4948092;28;20031;-76
2021/09/24 04:33:21;;;;;;;9.75;5.75;;;;;;;14.83;45.97;100560.50;4950707;28;20054;-76
2021/09/24 04:35:47;;;;;;;10.77;5.10;;;;;;;14.25;47.06;100555.09;4950132;29;20039;-79
2021/09/24 04:38:12;;;;;;;8.13;4.63;;;;;;;14.50;46.32;100541.59;4950737;28;20032;-77
2021/09/24 04:40:39;;;;;;;8.18;4.20;;;;;;;14.41;46.63;100534.66;4951107;28;20074;-74
2021/09/24 04:43:04;;;;;;;10.40;6.07;;;;;;;14.22;47.19;100565.69;4948340;29;20127;-74
2021/09/24 04:45:30;;;;;;;17.20;5.28;;;;;;;14.32;46.75;100556.75;4949739;28;20514;-76
2021/09/24 04:47:55;;;;;;;6.00;4.38;;;;;;;14.02;46.99;100543.97;4946358;28;20034;-75
2021/09/24 04:50:21;;;;;;;8.18;5.03;;;;;;;14.13;46.92;100544.69;4940749;29;20559;-77
2021/09/24 04:52:47;;;;;;;9.70;4.63;;;;;;;14.39;47.28;100568.13;4949603;29;20035;-76
2021/09/24 04:55:13;;;;;;;7.15;4.50;;;;;;;14.38;46.35;100532.06;4950501;29;20043;-74
2021/09/24 04:57:38;;;;;;;8.68;5.38;;;;;;;14.16;47.13;100563.13;4949607;29;20034;-73
2021/09/24 05:00:07;;;;;;;5.85;3.75;;;;;;;14.45;46.87;100528.44;4950377;28;20492;-76
2021/09/24 05:02:33;;;;;;;15.88;5.45;;;;;;;14.71;46.35;100508.75;4949245;29;20485;-75
2021/09/24 05:04:58;;;;;;;10.65;5.53;;;;;;;14.88;46.45;100517.25;4945504;29;20027;-75
2021/09/24 05:07:24;;;;;;;13.50;5.22;;;;;;;14.98;46.10;100520.63;4947972;29;20065;-75
2021/09/24 05:09:50;;;;;;;8.82;4.97;;;;;;;15.20;45.08;100558.16;4949099;29;20546;-77
2021/09/24 05:12:15;;;;;;;12.55;5.25;;;;;;;15.22;45.20;100539.59;4948749;29;20058;-75
2021/09/24 05:14:40;;;;;;;12.02;5.55;;;;;;;14.96;45.90;100515.38;4947631;28;20134;-74
2021/09/24 05:17:06;;;;;;;13.05;5.03;;;;;;;15.01;46.25;100536.44;4948607;29;20043;-77
2021/09/24 05:19:32;;;;;;;8.73;4.85;;;;;;;15.01;46.06;100535.53;4949223;29;20681;-76
2021/09/24 05:21:57;;;;;;;6.57;3.88;;;;;;;15.04;46.31;100511.72;4946465;29;20035;-76
2021/09/24 05:24:23;;;;;;;7.35;4.78;;;;;;;14.89;45.52;100483.78;4945275;29;20094;-76
2021/09/24 05:26:48;;;;;;;9.23;6.22;;;;;;;15.29;45.88;100518.34;4949677;29;20038;-75
2021/09/24 05:29:14;;;;;;;10.98;5.20;;;;;;;15.45;45.51;100537.44;4949607;29;20403;-75
2021/09/24 05:31:39;;;;;;;8.73;4.53;;;;;;;15.37;45.16;100526.13;4961738;28;20035;-74
2021/09/24 05:34:05;;;;;;;9.68;4.90;;;;;;;15.39;44.87;100538.41;4949140;28;20050;-76
2021/09/24 05:36:31;;;;;;;7.47;3.22;;;;;;;14.92;44.86;100510.16;4946570;28;20044;-75
2021/09/24 05:38:57;;;;;;;8.93;4.82;;;;;;;15.17;44.88;100518.53;4948344;29;20070;-76
2021/09/24 05:41:22;;;;;;;6.47;3.65;;;;;;;15.42;44.35;100540.13;4965242;28;20043;-74
2021/09/24 05:43:50;;;;;;;7.35;4.03;;;;;;;15.41;44.37;100525.19;4948481;28;20031;-75
2021/09/24 05:46:19;;;;;;;9.05;5.28;;;;;;;15.85;43.54;100551.72;4963960;28;20039;-76
2021/09/24 05:48:45;;;;;;;14.38;5.15;;;;;;;16.02;43.59;100560.22;4949982;29;20035;-76
2021/09/24 05:51:10;;;;;;;6.82;4.10;;;;;;;15.34;43.82;100535.00;4949892;28;20093;-79
2021/09/24 05:53:37;;;;;;;8.63;5.82;;;;;;;15.61;44.31;100557.41;4948307;29;20055;-80
2021/09/24 05:56:04;;;;;;;10.20;6.00;;;;;;;15.65;44.06;100568.81;4950287;28;20049;-80
2021/09/24 05:58:29;;;;;;;14.50;4.78;;;;;;;16.04;43.63;100574.28;4946914;29;20047;-77
2021/09/24 06:00:55;;;;;;;7.63;4.95;;;;;;;16.15;43.43;100582.00;4938237;29;20480;-78
2021/09/24 06:03:20;;;;;;;11.20;5.35;;;;;;;16.22;42.98;100562.44;4948041;29;20038;-76
2021/09/24 06:05:46;;;;;;;17.20;5.10;;;;;;;16.25;42.59;100554.44;4951726;29;20061;-77
2021/09/24 06:08:11;;;;;;;10.00;5.43;;;;;;;15.65;44.06;100582.03;4951117;29;20126;-78
2021/09/24 06:10:39;;;;;;;10.68;8.52;;;;;;;15.84;44.06;100558.78;4950235;29;20557;-79
2021/09/24 06:13:06;;;;;;;14.25;5.82;;;;;;;16.24;42.77;100557.97;4948221;28;20055;-77
2021/09/24 06:15:31;;;;;;;8.20;5.50;;;;;;;16.32;42.91;100558.72;4951034;29;20492;-78
2021/09/24 06:17:57;;;;;;;7.45;5.15;;;;;;;16.46;42.93;100561.94;4946848;28;20058;-78
2021/09/24 06:20:22;;;;;;;13.15;6.78;;;;;;;16.47;42.97;100531.00;4948337;29;20046;-75
2021/09/24 06:22:48;;;;;;;12.13;5.85;;;;;;;16.57;42.27;100564.31;4950830;29;20504;-76
2021/09/24 06:25:14;;;;;;;10.75;6.65;;;;;;;16.39;43.01;100570.91;4947987;28;20055;-78
2021/09/24 06:27:40;;;;;;;14.57;7.65;;;;;;;16.52;42.93;100568.84;4950773;28;20043;-79
2021/09/24 06:30:08;;;;;;;10.07;7.07;;;;;;;15.63;43.85;100545.03;4949638;29;20139;-79
2021/09/24 06:32:35;;;;;;;9.82;6.25;;;;;;;16.08;43.42;100551.25;4946144;29;20047;-76
2021/09/24 06:35:00;;;;;;;9.57;5.78;;;;;;;16.41;43.04;100573.50;4951777;28;20040;-78
2021/09/24 06:37:26;;;;;;;11.23;6.15;;;;;;;16.55;42.61;100547.63;4949566;29;20074;-78
2021/09/24 06:39:51;;;;;;;10.13;6.15;;;;;;;16.70;42.40;100567.59;4951355;29;20027;-76
2021/09/24 06:42:17;;;;;;;11.55;6.70;;;;;;;16.38;43.13;100541.81;4951452;28;20078;-77
2021/09/24 06:44:43;;;;;;;8.35;6.20;;;;;;;16.14;43.66;100564.38;4948342;29;20035;-78
2021/09/24 06:47:08;;;;;;;10.95;6.45;;;;;;;16.35;42.68;100569.22;4946105;29;20063;-78
2021/09/24 06:49:37;;;;;;;11.70;6.78;;;;;;;16.37;42.66;100571.84;4946962;29;20077;-78
2021/09/24 06:52:03;;;;;;;10.88;6.25;;;;;;;16.53;42.50;100541.47;4954104;28;20031;-77
2021/09/24 06:54:30;;;;;;;11.27;6.10;;;;;;;16.37;42.73;100558.63;4953297;29;20048;-75
2021/09/24 06:56:56;;;;;;;11.48;6.60;;;;;;;16.43;42.66;100531.97;4939890;29;20098;-78
2021/09/24 06:59:21;;;;;;;6.65;4.90;;;;;;;16.46;42.52;100532.78;4951011;29;20039;-76
2021/09/24 07:01:46;;;;;;;15.43;5.97;;;;;;;16.58;41.92;100536.94;4955712;28;20516;-77
2021/09/24 07:04:13;;;;;;;14.02;6.47;;;;;;;16.60;41.94;100532.47;4950295;28;20370;-78
2021/09/24 07:06:39;;;;;;;9.90;5.63;;;;;;;17.06;41.12;100522.56;4967483;28;20346;-76
2021/09/24 07:09:04;;;;;;;9.93;5.68;;;;;;;16.88;41.81;100523.91;4943332;29;20039;-74
2021/09/24 07:11:31;;;;;;;9.63;5.20;;;;;;;17.20;41.06;100554.91;4953761;29;20042;-77
2021/09/24 07:13:58;;;;;;;7.68;5.22;;;;;;;17.41;39.95;100544.69;4935959;29;20055;-78
2021/09/24 07:16:23;;;;;;;8.90;4.82;;;;;;;17.53;40.49;100557.63;4950642;28;20044;-79
2021/09/24 07:18:49;;;;;;;10.68;5.20;;;;;;;17.63;40.62;100531.69;4956310;29;20084;-79
2021/09/24 07:21:14;;;;;;;9.65;5.40;;;;;;;17.54;39.51;100526.66;4952713;28;20031;-77
2021/09/24 07:23:40;;;;;;;6.90;4.35;;;;;;;17.78;41.12;100562.28;4952253;29;20039;-75
2021/09/24 07:26:05;;;;;;;15.23;4.47;;;;;;;17.53;40.32;100541.69;4955678;29;20039;-77
2021/09/24 07:28:31;;;;;;;10.85;4.38;;;;;;;17.51;39.97;100556.78;4946876;28;20027;-75
2021/09/24 07:31:03;;;;;;;5.47;3.70;;;;;;;17.51;40.86;100527.59;4947623;29;20031;-78
2021/09/24 07:33:28;;;;;;;20.15;4.68;;;;;;;17.82;39.68;100535.66;4957341;29;20050;-78
2021/09/24 07:35:54;;;;;;;12.73;4.05;;;;;;;17.84;39.41;100511.69;4955692;29;20126;-79
2021/09/24 07:38:21;;;;;;;9.77;4.43;;;;;;;17.37;39.55;100496.16;4953996;28;20035;-79
2021/09/24 07:40:46;;;;;;;11.73;5.35;;;;;;;17.81;39.22;100538.31;4958128;28;20051;-76
2021/09/24 07:43:13;;;;;;;10.02;4.07;;;;;;;17.02;39.85;100499.69;4948533;29;20135;-77
2021/09/24 07:45:39;;;;;;;6.25;2.83;;;;;;;17.37;40.01;100512.06;4951703;28;20114;-77
2021/09/24 07:48:04;;;;;;;7.05;4.05;;;;;;;17.57;39.83;100500.03;4959961;29;20469;-78
2021/09/24 07:50:30;;;;;;;5.95;4.13;;;;;;;17.57;39.63;100516.81;4973612;28;20063;-75
2021/09/24 07:52:55;;;;;;;8.18;3.72;;;;;;;17.75;39.66;100514.56;4959986;28;20114;-77
2021/09/24 07:55:22;;;;;;;9.45;4.28;;;;;;;18.00;39.48;100506.81;4956951;29;20043;-77
2021/09/24 07:57:51;;;;;;;10.52;4.25;;;;;;;17.68;40.36;100513.88;4952934;28;20036;-73
2021/09/24 08:00:17;;;;;;;9.43;4.32;;;;;;;17.96;39.70;100502.50;4955460;28;20043;-78
2021/09/24 08:02:43;;;;;;;9.00;5.63;;;;;;;18.00;39.69;100499.72;4954331;29;20121;-77
2021/09/24 08:05:10;;;;;;;12.40;5.25;;;;;;;18.41;39.16;100502.91;4952229;28;20047;-79
2021/09/24 08:07:35;;;;;;;11.25;6.63;;;;;;;18.14;39.69;100467.44;4954231;28;20071;-76
2021/09/24 08:10:01;;;;;;;8.50;5.13;;;;;;;17.60;40.37;100482.25;4946190;29;20066;-76
2021/09/24 08:12:27;;;;;;;8.75;4.82;;;;;;;17.44;41.53;100470.31;4948175;28;20471;-79
2021/09/24 08:14:52;;;;;;;21.63;5.55;;;;;;;17.79;40.85;100448.06;4981155;28;20038;-77
2021/09/24 08:17:18;;;;;;;10.35;5.43;;;;;;;18.16;40.23;100476.22;4951892;28;20082;-76
2021/09/24 08:19:43;;;;;;;6.80;4.93;;;;;;;18.33;39.52;100462.44;4952191;29;20035;-77
2021/09/24 08:22:09;;;;;;;10.43;6.45;;;;;;;18.30;39.73;100467.84;4952353;28;20081;-79
2021/09/24 08:24:34;;;;;;;10.40;5.82;;;;;;;18.48;39.19;100483.22;4939761;29;20032;-77
2021/09/24 08:27:00;;;;;;;9.35;5.35;;;;;;;18.59;39.25;100461.63;4947952;29;20102;-79
2021/09/24 08:29:25;;;;;;;13.55;6.65;;;;;;;19.09;39.35;100483.03;4951334;29;20031;-78
2021/09/24 08:31:51;;;;;;;8.27;5.50;;;;;;;18.56;39.73;100440.44;4952204;29;20039;-80
2021/09/24 08:34:16;;;;;;;10.85;6.50;;;;;;;18.71;40.02;100461.22;4951669;28;20042;-79
2021/09/24 08:36:42;;;;;;;10.65;6.07;;;;;;;19.01;39.33;100434.56;4954126;28;20031;-80
2021/09/24 08:39:08;;;;;;;13.98;5.88;;;;;;;19.07;39.09;100430.81;4941991;29;20063;-79
2021/09/24 08:41:33;;;;;;;13.40;5.97;;;;;;;19.65;39.15;100451.81;4945748;29;20039;-78
2021/09/24 08:43:59;;;;;;;23.60;5.22;;;;;;;18.49;39.77;100425.63;4952989;28;20078;-79
2021/09/24 08:46:26;;;;;;;9.50;5.28;;;;;;;18.90;40.42;100448.22;4953872;28;20067;-77
2021/09/24 08:48:51;;;;;;;10.43;5.90;;;;;;;19.49;39.26;100438.19;4951604;28;20112;-78
2021/09/24 08:51:17;;;;;;;18.33;6.90;;;;;;;19.50;38.40;100416.84;4950607;29;20417;-79
2021/09/24 08:53:43;;;;;;;9.85;6.32;;;;;;;19.75;38.40;100438.09;4940009;29;20040;-78
2021/09/24 08:56:10;;;;;;;14.70;5.90;;;;;;;19.78;38.02;100431.78;4943398;28;20063;-79
2021/09/24 08:58:36;;;;;;;7.95;5.68;;;;;;;19.73;38.69;100434.63;4953571;28;20136;-80
2021/09/24 09:01:03;;;;;;;8.23;4.95;;;;;;;19.95;38.69;100432.03;4952099;29;20073;-80
2021/09/24 09:03:39;;;;;;;8.27;5.75;;;;;;;19.81;37.83;100391.75;4952942;28;20138;-77
2021/09/24 09:06:05;;;;;;;16.88;6.10;;;;;;;19.84;38.56;100412.06;4949923;28;20049;-77
2021/09/24 09:08:31;;;;;;;7.93;5.35;;;;;;;20.32;38.28;100419.03;4951663;28;20145;-81
2021/09/24 09:11:06;;;;;;;8.02;5.18;;;;;;;19.97;37.92;100423.97;4939385;29;20038;-77
2021/09/24 09:13:40;;;;;;;6.90;5.78;;;;;;;19.65;38.13;100426.03;4948769;28;20058;-79
2021/09/24 09:16:17;;;;;;;18.45;6.18;;;;;;;19.41;38.40;100387.91;4950617;28;20031;-78
2021/09/24 09:18:45;;;;;;;8.50;4.80;;;;;;;19.88;37.86;100411.00;4934756;29;20386;-77
2021/09/24 09:21:14;;;;;;;7.53;5.32;;;;;;;20.32;37.49;100398.63;4940414;28;20023;-76
2021/09/24 09:23:45;;;;;;;9.55;5.47;;;;;;;19.99;37.98;100393.72;4937127;28;20032;-78
2021/09/24 09:26:12;;;;;;;14.77;5.60;;;;;;;20.22;37.26;100382.09;4948573;29;20121;-77
2021/09/24 09:28:50;;;;;;;13.50;6.63;;;;;;;19.93;36.98;100399.25;4950753;28;20074;-77
2021/09/24 09:31:23;;;;;;;5.85;3.75;;;;;;;20.08;36.97;100403.09;4950176;28;20463;-78
2021/09/24 09:33:48;;;;;;;12.05;5.78;;;;;;;20.36;36.33;100402.88;4945074;28;20039;-78
2021/09/24 09:36:22;;;;;;;6.72;4.43;;;;;;;20.37;36.35;100393.97;4937061;29;20031;-77
2021/09/24 09:38:48;;;;;;;19.00;6.22;;;;;;;20.71;35.68;100381.91;4940312;29;20110;-75
2021/09/24 09:41:16;;;;;;;6.88;5.18;;;;;;;20.96;35.98;100380.88;4952582;29;20039;-79
2021/09/24 09:43:47;;;;;;;6.90;4.38;;;;;;;20.98;36.02;100365.66;4967699;28;20042;-79
2021/09/24 09:46:25;;;;;;;11.57;4.70;;;;;;;20.80;36.26;100340.66;4954373;28;20043;-77
2021/09/24 09:49:06;;;;;;;9.05;4.97;;;;;;;20.57;36.32;100333.63;4950822;28;20050;-79
2021/09/24 09:51:32;;;;;;;6.43;4.65;;;;;;;20.83;36.40;100333.38;4948418;29;20038;-80
2021/09/24 09:53:58;;;;;;;7.05;4.28;;;;;;;20.91;36.30;100327.72;4948670;28;20118;-79
2021/09/24 09:56:39;;;;;;;8.25;4.90;;;;;;;21.00;36.00;100324.66;4950186;29;20057;-79
2021/09/24 09:59:25;;;;;;;9.38;5.78;;;;;;;20.92;36.07;100326.78;4952554;28;20122;-79
2021/09/24 10:02:15;;;;;;;17.00;4.95;;;;;;;20.94;35.78;100316.91;4948975;29;20035;-76
2021/09/24 10:04:46;;;;;;;10.57;4.60;;;;;;;21.00;36.39;100326.41;4951201;29;21601;-78
2021/09/24 10:07:43;;;;;;;9.38;5.07;;;;;;;20.81;36.50;100327.25;4940857;29;20027;-78
2021/09/24 10:10:11;;;;;;;6.85;4.57;;;;;;;20.51;36.98;100325.84;4941283;29;20047;-76
2021/09/24 10:12:39;;;;;;;6.78;5.47;;;;;;;20.33;36.85;100288.41;4947956;29;20050;-77
2021/09/24 10:15:08;;;;;;;7.03;4.78;;;;;;;20.60;36.29;100293.50;4953553;29;20039;-77
2021/09/24 10:17:34;;;;;;;6.07;4.85;;;;;;;20.85;36.99;100299.50;4971544;28;20449;-77
2021/09/24 10:19:59;;;;;;;5.55;4.22;;;;;;;20.80;36.72;100293.50;4939680;29;20054;-78
2021/09/24 10:22:26;;;;;;;13.23;5.35;;;;;;;20.71;36.36;100263.72;4944004;29;20037;-77
2021/09/24 10:24:53;;;;;;;10.35;5.28;;;;;;;21.37;35.82;100282.06;4946497;29;20114;-79
2021/09/24 10:27:24;;;;;;;15.45;5.70;;;;;;;20.93;35.93;100279.63;4951373;28;20272;-79
2021/09/24 10:29:51;;;;;;;10.93;4.90;;;;;;;21.08;35.72;100281.59;4952188;29;20039;-77
2021/09/24 10:32:26;;;;;;;9.48;4.63;;;;;;;21.34;35.30;100293.75;4944482;29;20042;-79
2021/09/24 10:35:04;;;;;;;15.45;6.38;;;;;;;21.39;35.77;100281.03;4937682;29;20591;-79
2021/09/24 10:37:35;;;;;;;6.85;4.15;;;;;;;21.63;35.28;100276.41;4952793;29;20048;-76
2021/09/24 10:40:21;;;;;;;22.25;4.47;;;;;;;21.74;34.51;100262.50;4984428;28;20102;-78
2021/09/24 10:42:48;;;;;;;12.73;4.78;;;;;;;22.30;34.17;100269.53;4951855;29;20515;-78
2021/09/24 10:45:34;;;;;;;7.25;4.57;;;;;;;22.28;34.52;100271.41;4953675;28;20111;-79
2021/09/24 10:48:09;;;;;;;12.57;5.18;;;;;;;22.04;34.09;100262.78;4951694;28;20039;-76
2021/09/24 10:50:37;;;;;;;6.93;4.50;;;;;;;22.18;33.75;100269.25;4954137;29;20038;-78
2021/09/24 10:53:18;;;;;;;11.10;3.75;;;;;;;22.42;33.29;100265.34;4952582;28;20031;-78
2021/09/24 10:55:52;;;;;;;11.88;4.78;;;;;;;22.51;33.49;100256.88;4952257;28;20079;-80
2021/09/24 10:58:21;;;;;;;7.90;5.03;;;;;;;22.34;33.64;100220.31;4952421;29;20077;-77
2021/09/24 11:00:48;;;;;;;8.50;4.38;;;;;;;22.44;34.02;100234.06;4951768;29;20031;-75
2021/09/24 11:03:16;;;;;;;11.32;4.68;;;;;;;22.76;33.97;100226.16;4954074;29;20039;-78
2021/09/24 11:06:10;;;;;;;5.40;4.05;;;;;;;22.76;33.18;100232.38;4953117;28;20070;-77
2021/09/24 11:08:36;;;;;;;9.38;4.63;;;;;;;23.05;32.92;100221.06;4952730;29;20122;-77
2021/09/24 11:11:11;;;;;;;14.13;4.25;;;;;;;22.91;33.00;100227.13;4952737;28;20035;-79
2021/09/24 11:13:46;;;;;;;12.32;3.65;;;;;;;22.78;32.59;100202.88;4951362;28;20051;-79
2021/09/24 11:16:43;;;;;;;9.10;4.53;;;;;;;22.64;33.33;100184.88;4952148;29;20050;-78
2021/09/24 11:19:35;;;;;;;22.02;4.65;;;;;;;22.88;32.94;100181.81;4951143;28;20031;-78